Alama Iqbal International Airport
OPLA : now visible

Airfield :











YOU CAN JOIN US ON...

 
LOGIN :

Register | Disclaimer

   EN    FR    IT 

 









Legend :    VFR   Marginal VFR   IFR   Intensive IFR   Very Intensive IFR
Visi :
Ceiling :
>= 8 km
>= 3000ft
5 to 8 km
1000 to 3000 ft
1500m to 5 km
500 to 1000 ft
800 to 1500m
200 to 500 ft
< 800m
< 200 ft
Symbols :   Thunderstorms  Fog  Heavy snow  Heavy precipitations  Wind > 20 kt






- Airport Elevation : 712 ft
- IATA code : LHE


OPLA - Alama Iqbal International

CURRENT METAR :
  • 011800Z 30008KT 5000 FU NSC 22/14 Q1013 NOSIG RMK QFE987 RMK A29.89

EXPIRED METARs :
  • 011730Z 33005KT 5000 FU NSC 23/15 Q1013 RMK QFE987 RMK A29.89
  • 011700Z 30004KT 5000 FU NSC 23/15 Q1013 NOSIG RMK QFE987 RMK A29.89
  • 011630Z 30005KT 5000 FU NSC 23/15 Q1013 RMK QFE987 RMK A29.89
  • 011555Z 30006KT 5000 FU NSC 24/15 Q1013 NOSIG RMK QFE987 RMK A29.89
  • 011525Z 00000KT 6000 NSC 26/14 Q1013 RMK QFE987 RMK A29.87

TAF TAF OPLA
Valid from the 01 at 18:00 until the 03 at 00:00 UTC


011545Z 0118/0224 31003KT 4000 FU NSC TX29/0210Z TN16/0201Z
FM020500 31008KT 6000 NSC
FM021300 31004KT 4000 FU NSC



MET'MAP, your aeronautical weather chart ! - Copyright ORBIFLY December 2007 - Disclaimer

ORBIFLY MET'MAP TEAM :

Programming & Development : Alexandra Zaïnal
Concept & original design : Baudouin d'Aumeries
Assistance for programming : Marc-Olivier Méhu
Technical & hardware support : Manuel Goepfert

Contact : metmap@orbifly.com




SOURCES & CREDITS :

   NOAA       Earth
Advisory